LOWW/VIE METAR and TAF weather

Enter ICAO airport designator
Station Type Date Time Source
LOWW METAR 2021/09/25 12:20 UTC NOAA

LOWW 251220Z 20005KT 160V290 CAVOK 25/11 Q1018 NOSIG


Station Type Date Time Source
LOWW Decoded METAR 2021/09/25 12:20 UTC NOAA

Wien / Schwechat-Flughafen, Austria (LOWW) 48-07N 016-34E 190M
Sep 25, 2021 - 08:20 AM EDT / 2021.09.25 1220 UTC
Wind: from the SSW (200 degrees) at 6 MPH (5 KT) (direction variable):0
Visibility: greater than 7 mile(s):0
Temperature: 77 F (25 C)
Dew Point: 51 F (11 C)
Relative Humidity: 41%
Pressure (altimeter): 30.06 in. Hg (1018 hPa)
ob: LOWW 251220Z 20005KT 160V290 CAVOK 25/11 Q1018 NOSIG
cycle: 12

Station Type Date Time Source
LOWW TAF 2021/09/25 12:20 UTC NOAA

TAF LOWW 251115Z 2512/2618 18004KT CAVOK TX25/2514Z TN10/2605Z
BECMG 2512/2514 14008KT
BECMG 2518/2522 VRB02KT PROB40
TEMPO 2603/2608 0300 FG VV001
BECMG 2608/2611 12008KT
BECMG 2616/2618 12004KT

Example: see airport list